Observation data for Post on 11/16/2019      Previous  Date       Current Mesonet Observations  Soil Data  Daily Summary Page  Observations in Plain Language
KPT1 160600Z 18003KT 07/M02 A3019 RMK A01 T00721020  RH  053%=      5-min Rain = 0
KPT1 160605Z 16002KT 07/M02 A3019 RMK A01 T00691020  RH  053%=      5-min Rain = 0
KPT1 160610Z 17003KT 07/M02 A3019 RMK A01 T00701020  RH  053%=      5-min Rain = 0
KPT1 160615Z 19002KT 07/M02 A3019 RMK A01 T00711021  RH  053%=      5-min Rain = 0
KPT1 160620Z 21003KT 07/M02 A3019 RMK A01 T00711020  RH  052%=      5-min Rain = 0
KPT1 160625Z 21003KT 07/M02 A3019 RMK A01 T00711020  RH  053%=      5-min Rain = 0
KPT1 160630Z 20003KT 07/M02 A3019 RMK A01 T00711019  RH  053%=      5-min Rain = 0
KPT1 160635Z 21004KT 07/M02 A3019 RMK A01 T00701019  RH  054%=      5-min Rain = 0
KPT1 160640Z 20005KT 07/M02 A3019 RMK A01 T00701018  RH  054%=      5-min Rain = 0
KPT1 160645Z 20006KT 07/M02 A3018 RMK A01 T00731016  RH  054%=      5-min Rain = 0
KPT1 160650Z 21005KT 08/M02 A3018 RMK A01 T00751015  RH  053%=      5-min Rain = 0
KPT1 160655Z 21006KT 08/M02 A3018 RMK A01 T00761016  RH  053%=      5-min Rain = 0
KPT1 160700Z 20007KT 08/M02 A3018 RMK A01 T00771016  RH  052%=      5-min Rain = 0
KPT1 160705Z 20007KT 08/M02 A3018 RMK A01 T00781016  RH  052%=      5-min Rain = 0
KPT1 160710Z 21007KT 08/M02 A3018 RMK A01 T00791016  RH  052%=      5-min Rain = 0
KPT1 160715Z 21006KT 08/M02 A3018 RMK A01 T00781016  RH  052%=      5-min Rain = 0
KPT1 160720Z 20006KT 08/M02 A3018 RMK A01 T00781016  RH  052%=      5-min Rain = 0
KPT1 160725Z 20006KT 08/M02 A3018 RMK A01 T00781016  RH  052%=      5-min Rain = 0
KPT1 160730Z 20007KT 08/M02 A3017 RMK A01 T00781016  RH  052%=      5-min Rain = 0
KPT1 160735Z 20007KT 08/M02 A3017 RMK A01 T00791016  RH  051%=      5-min Rain = 0
KPT1 160740Z 19007KT 08/M02 A3017 RMK A01 T00791016  RH  051%=      5-min Rain = 0
KPT1 160745Z 19007KT 08/M02 A3017 RMK A01 T00791016  RH  051%=      5-min Rain = 0
KPT1 160750Z 19007KT 08/M02 A3017 RMK A01 T00791016  RH  052%=      5-min Rain = 0
KPT1 160755Z 19007KT 08/M02 A3017 RMK A01 T00791015  RH  052%=      5-min Rain = 0
KPT1 160800Z 19008KT 08/M01 A3016 RMK A01 T00791014  RH  052%=      5-min Rain = 0
KPT1 160805Z 20008KT 08/M01 A3016 RMK A01 T00781014  RH  053%=      5-min Rain = 0
KPT1 160810Z 20007KT 08/M01 A3016 RMK A01 T00791014  RH  052%=      5-min Rain = 0
KPT1 160815Z 20007KT 08/M01 A3016 RMK A01 T00771014  RH  053%=      5-min Rain = 0
KPT1 160820Z 20008KT 08/M01 A3016 RMK A01 T00771014  RH  053%=      5-min Rain = 0
KPT1 160825Z 21007KT 08/M01 A3016 RMK A01 T00761013  RH  054%=      5-min Rain = 0
KPT1 160830Z 21007KT 07/M01 A3016 RMK A01 T00741013  RH  055%=      5-min Rain = 0
KPT1 160835Z 21007KT 07/M01 A3016 RMK A01 T00741012  RH  055%=      5-min Rain = 0
KPT1 160840Z 21007KT 07/M01 A3016 RMK A01 T00731012  RH  055%=      5-min Rain = 0
KPT1 160845Z 21007KT 07/M01 A3016 RMK A01 T00731012  RH  055%=      5-min Rain = 0
KPT1 160850Z 21007KT 07/M01 A3016 RMK A01 T00721012  RH  055%=      5-min Rain = 0
KPT1 160855Z 20007KT 07/M01 A3016 RMK A01 T00731013  RH  055%=      5-min Rain = 0
KPT1 160900Z 20006G11KT 07/M01 A3015 RMK A01 T00741013  RH  055%=      5-min Rain = 0
KPT1 160905Z 20007KT 08/M01 A3015 RMK A01 T00771013  RH  054%=      5-min Rain = 0
KPT1 160910Z 20007KT 08/M01 A3015 RMK A01 T00781012  RH  053%=      5-min Rain = 0
KPT1 160915Z 20007KT 08/M01 A3015 RMK A01 T00791012  RH  053%=      5-min Rain = 0
KPT1 160920Z 19006KT 08/M01 A3015 RMK A01 T00771012  RH  054%=      5-min Rain = 0
KPT1 160925Z 19007KT 08/M01 A3015 RMK A01 T00771012  RH  054%=      5-min Rain = 0
KPT1 160930Z 19008KT 08/M01 A3015 RMK A01 T00771012  RH  054%=      5-min Rain = 0
KPT1 160935Z 19007KT 08/M01 A3015 RMK A01 T00781012  RH  053%=      5-min Rain = 0
KPT1 160940Z 20006KT 08/M01 A3015 RMK A01 T00751012  RH  054%=      5-min Rain = 0
KPT1 160945Z 20006KT 07/M01 A3015 RMK A01 T00741012  RH  055%=      5-min Rain = 0
KPT1 160950Z 20006KT 07/M01 A3015 RMK A01 T00731012  RH  055%=      5-min Rain = 0
KPT1 160955Z 20006KT 07/M01 A3015 RMK A01 T00721012  RH  056%=      5-min Rain = 0
KPT1 161000Z 20007KT 07/M01 A3015 RMK A01 T00711012  RH  056%=      5-min Rain = 0
KPT1 161005Z 20006KT 07/M01 A3014 RMK A01 T00711012  RH  056%=      5-min Rain = 0
KPT1 161010Z 20005KT 07/M01 A3014 RMK A01 T00691012  RH  057%=      5-min Rain = 0
KPT1 161015Z 20005KT 07/M01 A3014 RMK A01 T00661012  RH  058%=      5-min Rain = 0
KPT1 161020Z 19005KT 07/M01 A3014 RMK A01 T00651011  RH  059%=      5-min Rain = 0
KPT1 161025Z 20005KT 06/M01 A3014 RMK A01 T00621011  RH  060%=      5-min Rain = 0
KPT1 161030Z 20006KT 06/M01 A3014 RMK A01 T00621011  RH  060%=      5-min Rain = 0
KPT1 161035Z 20006KT 06/M01 A3014 RMK A01 T00621010  RH  060%=      5-min Rain = 0
KPT1 161040Z 20005KT 06/M01 A3014 RMK A01 T00611011  RH  061%=      5-min Rain = 0
KPT1 161045Z 20006KT 06/M01 A3014 RMK A01 T00601010  RH  061%=      5-min Rain = 0
KPT1 161050Z 21006KT 06/M01 A3015 RMK A01 T00581010  RH  062%=      5-min Rain = 0
KPT1 161055Z 20005KT 06/M01 A3015 RMK A01 T00561009  RH  063%=      5-min Rain = 0
KPT1 161100Z 20005KT 06/M01 A3014 RMK A01 T00561009  RH  064%=      5-min Rain = 0
KPT1 161105Z 20005KT 06/M01 A3014 RMK A01 T00551009  RH  064%=      5-min Rain = 0
KPT1 161110Z 20006KT 05/M01 A3014 RMK A01 T00541008  RH  065%=      5-min Rain = 0
KPT1 161115Z 20005KT 05/M01 A3014 RMK A01 T00541008  RH  065%=      5-min Rain = 0
KPT1 161120Z 20005KT 05/M01 A3014 RMK A01 T00541007  RH  065%=      5-min Rain = 0
KPT1 161125Z 20005KT 05/M01 A3014 RMK A01 T00541007  RH  065%=      5-min Rain = 0
KPT1 161130Z 20005KT 05/M01 A3014 RMK A01 T00531007  RH  066%=      5-min Rain = 0
KPT1 161135Z 20005KT 05/M01 A3014 RMK A01 T00531007  RH  066%=      5-min Rain = 0
KPT1 161140Z 19005KT 05/M01 A3014 RMK A01 T00521008  RH  066%=      5-min Rain = 0
KPT1 161145Z 20005KT 05/M01 A3014 RMK A01 T00511008  RH  066%=      5-min Rain = 0
KPT1 161150Z 20006KT 05/M01 A3014 RMK A01 T00521007  RH  066%=      5-min Rain = 0
KPT1 161155Z 20006KT 06/M01 A3014 RMK A01 T00551006  RH  065%=      5-min Rain = 0
KPT1 161200Z 19006KT 06/M01 A3014 RMK A01 T00571006  RH  064%=      5-min Rain = 0
KPT1 161205Z 19005KT 06/M01 A3014 RMK A01 T00581006  RH  064%=      5-min Rain = 0
KPT1 161210Z 16002KT 05/M01 A3014 RMK A01 T00491012  RH  066%=      5-min Rain = 0
KPT1 161215Z 10002KT 04/M01 A3014 RMK A01 T00381013  RH  070%=      5-min Rain = 0
KPT1 161220Z 12003KT 04/M01 A3014 RMK A01 T00361011  RH  072%=      5-min Rain = 0
KPT1 161225Z 14003KT 04/M01 A3014 RMK A01 T00351010  RH  073%=      5-min Rain = 0
KPT1 161230Z 16002KT 04/M01 A3014 RMK A01 T00381008  RH  073%=      5-min Rain = 0
KPT1 161235Z 16003KT 04/M01 A3014 RMK A01 T00381009  RH  072%=      5-min Rain = 0
KPT1 161240Z 18003KT 04/M01 A3014 RMK A01 T00391008  RH  072%=      5-min Rain = 0
KPT1 161245Z 17004KT 04/M01 A3014 RMK A01 T00391008  RH  072%=      5-min Rain = 0
KPT1 161250Z 17003KT 04/M01 A3014 RMK A01 T00361010  RH  073%=      5-min Rain = 0
KPT1 161255Z 17004KT 04/M01 A3014 RMK A01 T00371008  RH  073%=      5-min Rain = 0
KPT1 161300Z 17004KT 04/M01 A3014 RMK A01 T00381007  RH  073%=      5-min Rain = 0
KPT1 161305Z 19004KT 04/M01 A3014 RMK A01 T00371007  RH  073%=      5-min Rain = 0
KPT1 161310Z 18005KT 04/M01 A3014 RMK A01 T00371007  RH  073%=      5-min Rain = 0
KPT1 161315Z 19005KT 04/M01 A3014 RMK A01 T00381006  RH  074%=      5-min Rain = 0
KPT1 161320Z 19005KT 04/M01 A3014 RMK A01 T00401006  RH  072%=      5-min Rain = 0
KPT1 161325Z 19005KT 05/M01 A3014 RMK A01 T00451005  RH  071%=      5-min Rain = 0
KPT1 161330Z 18004KT 05/M01 A3014 RMK A01 T00471005  RH  070%=      5-min Rain = 0
KPT1 161335Z 18005KT 05/M01 A3014 RMK A01 T00471006  RH  070%=      5-min Rain = 0
KPT1 161340Z 19005KT 04/M01 A3014 RMK A01 T00441005  RH  071%=      5-min Rain = 0
KPT1 161345Z 19005KT 05/M00 A3014 RMK A01 T00461004  RH  071%=      5-min Rain = 0
KPT1 161350Z 19005KT 05/M00 A3014 RMK A01 T00481004  RH  070%=      5-min Rain = 0
KPT1 161355Z 17005KT 05/M00 A3014 RMK A01 T00481003  RH  070%=      5-min Rain = 0
KPT1 161400Z 18005KT 05/M00 A3014 RMK A01 T00511001  RH  070%=      5-min Rain = 0
KPT1 161405Z 18005G11KT 05/M00 A3014 RMK A01 T00531001  RH  069%=      5-min Rain = 0
KPT1 161410Z 18005KT 06/00 A3014 RMK A01 T00570000  RH  068%=      5-min Rain = 0
KPT1 161415Z 19005KT 06/00 A3014 RMK A01 T00610001  RH  066%=      5-min Rain = 0
KPT1 161420Z 19007G12KT 07/00 A3014 RMK A01 T00710002  RH  062%=      5-min Rain = 0
KPT1 161425Z 19008G13KT 08/M00 A3014 RMK A01 T00761001  RH  059%=      5-min Rain = 0
KPT1 161430Z 20009G15KT 08/M00 A3014 RMK A01 T00781002  RH  058%=      5-min Rain = 0
KPT1 161435Z 20011KT 08/M00 A3014 RMK A01 T00791003  RH  057%=      5-min Rain = 0
KPT1 161440Z 20011G16KT 08/M00 A3014 RMK A01 T00791003  RH  057%=      5-min Rain = 0
KPT1 161445Z 19009KT 08/M00 A3014 RMK A01 T00811001  RH  057%=      5-min Rain = 0
KPT1 161450Z 19011G16KT 08/M00 A3014 RMK A01 T00841001  RH  055%=      5-min Rain = 0
KPT1 161455Z 20011G16KT 09/00 A3014 RMK A01 T008800-0  RH  054%=      5-min Rain = 0
KPT1 161500Z 20011G16KT 09/00 A3014 RMK A01 T00910000  RH  054%=      5-min Rain = 0
KPT1 161505Z 20011KT 09/00 A3013 RMK A01 T00940001  RH  053%=      5-min Rain = 0
KPT1 161510Z 19011G16KT 10/00 A3013 RMK A01 T00970002  RH  052%=      5-min Rain = 0
KPT1 161515Z 20010KT 10/00 A3013 RMK A01 T00990003  RH  052%=      5-min Rain = 0
KPT1 161520Z 19011KT 10/00 A3013 RMK A01 T01000003  RH  051%=      5-min Rain = 0
KPT1 161525Z 20011G16KT 10/00 A3013 RMK A01 T00990003  RH  052%=      5-min Rain = 0
KPT1 161530Z 20010KT 10/01 A3013 RMK A01 T00990005  RH  053%=      5-min Rain = 0
KPT1 161535Z 20010KT 10/01 A3013 RMK A01 T01040006  RH  051%=      5-min Rain = 0
KPT1 161540Z 20009G15KT 11/01 A3013 RMK A01 T01050007  RH  051%=      5-min Rain = 0
KPT1 161545Z 20010KT 11/01 A3013 RMK A01 T01080008  RH  051%=      5-min Rain = 0
KPT1 161550Z 20012KT 11/01 A3013 RMK A01 T01100007  RH  050%=      5-min Rain = 0
KPT1 161555Z 19008G13KT 12/01 A3013 RMK A01 T01170010  RH  049%=      5-min Rain = 0
KPT1 161600Z 19010G15KT 12/01 A3013 RMK A01 T01230010  RH  047%=      5-min Rain = 0
KPT1 161605Z 19010KT 13/01 A3013 RMK A01 T01250011  RH  046%=      5-min Rain = 0
KPT1 161610Z 20007KT 13/01 A3013 RMK A01 T01300012  RH  045%=      5-min Rain = 0
KPT1 161615Z 20011KT 13/01 A3013 RMK A01 T01300010  RH  045%=      5-min Rain = 0
KPT1 161620Z 20010G15KT 13/01 A3013 RMK A01 T01300011  RH  045%=      5-min Rain = 0
KPT1 161625Z 19009G15KT 13/01 A3013 RMK A01 T01310011  RH  045%=      5-min Rain = 0
KPT1 161630Z 20009KT 14/01 A3012 RMK A01 T01350013  RH  044%=      5-min Rain = 0
KPT1 161635Z 20010KT 13/01 A3012 RMK A01 T01330012  RH  044%=      5-min Rain = 0
KPT1 161640Z 19009G14KT 14/01 A3012 RMK A01 T01370013  RH  043%=      5-min Rain = 0
KPT1 161645Z 20008KT 14/01 A3011 RMK A01 T01410014  RH  043%=      5-min Rain = 0
KPT1 161650Z 21009KT 14/01 A3011 RMK A01 T01420014  RH  042%=      5-min Rain = 0
KPT1 161655Z 19009KT 15/02 A3011 RMK A01 T01460016  RH  042%=      5-min Rain = 0
KPT1 161700Z 20009KT 15/02 A3011 RMK A01 T01470016  RH  042%=      5-min Rain = 0
KPT1 161705Z 19009KT 15/02 A3011 RMK A01 T01520018  RH  041%=      5-min Rain = 0
KPT1 161710Z 19010KT 15/02 A301 RMK A01 T01520017  RH  041%=      5-min Rain = 0
KPT1 161715Z 20010G15KT 16/02 A301 RMK A01 T01570019  RH  040%=      5-min Rain = 0
KPT1 161720Z 20010KT 16/02 A301 RMK A01 T01570019  RH  040%=      5-min Rain = 0
KPT1 161725Z 18010KT 16/02 A301 RMK A01 T01640021  RH  039%=      5-min Rain = 0
KPT1 161730Z 19011KT 17/02 A3009 RMK A01 T01650020  RH  038%=      5-min Rain = 0
KPT1 161735Z 19011KT 17/02 A3009 RMK A01 T01650020  RH  038%=      5-min Rain = 0
KPT1 161740Z 19011KT 17/02 A3009 RMK A01 T01670020  RH  038%=      5-min Rain = 0
KPT1 161745Z 19011G17KT 17/02 A3009 RMK A01 T01670021  RH  038%=      5-min Rain = 0
KPT1 161750Z 20012KT 16/02 A3008 RMK A01 T01640020  RH  038%=      5-min Rain = 0
KPT1 161755Z 20010G16KT 17/02 A3008 RMK A01 T01650021  RH  038%=      5-min Rain = 0
KPT1 161800Z 19010KT 17/02 A3008 RMK A01 T01700022  RH  038%=      5-min Rain = 0
KPT1 161805Z 19011KT 17/02 A3007 RMK A01 T01660021  RH  038%=      5-min Rain = 0
KPT1 161810Z 19012KT 16/02 A3007 RMK A01 T01640020  RH  039%=      5-min Rain = 0
KPT1 161815Z 20010KT 16/02 A3007 RMK A01 T01640020  RH  039%=      5-min Rain = 0
KPT1 161820Z 19009KT 17/02 A3006 RMK A01 T01650022  RH  039%=      5-min Rain = 0
KPT1 161825Z 18009KT 17/02 A3006 RMK A01 T01650022  RH  039%=      5-min Rain = 0
KPT1 161830Z 17008KT 17/02 A3005 RMK A01 T01690023  RH  038%=      5-min Rain = 0
KPT1 161835Z 18009KT 17/02 A3005 RMK A01 T01690023  RH  038%=      5-min Rain = 0
KPT1 161840Z 19010G15KT 17/02 A3005 RMK A01 T01740023  RH  037%=      5-min Rain = 0
KPT1 161845Z 19010KT 18/02 A3004 RMK A01 T01750022  RH  036%=      5-min Rain = 0
KPT1 161850Z 18011KT 18/02 A3004 RMK A01 T01780023  RH  036%=      5-min Rain = 0
KPT1 161855Z 19010KT 18/02 A3004 RMK A01 T01760022  RH  036%=      5-min Rain = 0
KPT1 161900Z 19010KT 18/02 A3003 RMK A01 T01790023  RH  036%=      5-min Rain = 0
KPT1 161905Z 18009G14KT 18/02 A3003 RMK A01 T01780024  RH  036%=      5-min Rain = 0
KPT1 161910Z 18011KT 17/02 A3003 RMK A01 T01730023  RH  037%=      5-min Rain = 0
KPT1 161915Z 18010KT 17/02 A3002 RMK A01 T01670023  RH  039%=      5-min Rain = 0
KPT1 161920Z 17010KT 17/02 A3002 RMK A01 T01650024  RH  039%=      5-min Rain = 0
KPT1 161925Z 18011KT 16/02 A3002 RMK A01 T01600023  RH  040%=      5-min Rain = 0
KPT1 161930Z 19010G15KT 16/02 A3002 RMK A01 T01600024  RH  041%=      5-min Rain = 0
KPT1 161935Z 19012KT 16/02 A3002 RMK A01 T01580023  RH  041%=      5-min Rain = 0
KPT1 161940Z 19008G13KT 16/02 A3001 RMK A01 T01600024  RH  041%=      5-min Rain = 0
KPT1 161945Z 18009KT 17/02 A3001 RMK A01 T01650024  RH  039%=      5-min Rain = 0
KPT1 161950Z 19008KT 17/03 A3001 RMK A01 T01700025  RH  038%=      5-min Rain = 0
KPT1 161955Z 18008G15KT 17/03 A3001 RMK A01 T01710025  RH  038%=      5-min Rain = 0
KPT1 162000Z 19009G14KT 17/03 A30 RMK A01 T01720025  RH  038%=      5-min Rain = 0
KPT1 162005Z 18008G14KT 17/03 A30 RMK A01 T01740026  RH  038%=      5-min Rain = 0
KPT1 162010Z 18009G14KT 18/02 A30 RMK A01 T01780024  RH  036%=      5-min Rain = 0
KPT1 162015Z 19009KT 18/02 A30 RMK A01 T01800024  RH  036%=      5-min Rain = 0
KPT1 162020Z 19009KT 18/02 A2999 RMK A01 T01810023  RH  035%=      5-min Rain = 0
KPT1 162025Z 18011KT 18/02 A2999 RMK A01 T01830021  RH  034%=      5-min Rain = 0
KPT1 162030Z 18010KT 18/02 A2999 RMK A01 T01820022  RH  035%=      5-min Rain = 0
KPT1 162035Z 17011KT 18/02 A2999 RMK A01 T01800023  RH  035%=      5-min Rain = 0
KPT1 162040Z 18010KT 18/02 A2999 RMK A01 T01810024  RH  035%=      5-min Rain = 0
KPT1 162045Z 18011G16KT 18/02 A2999 RMK A01 T01810022  RH  035%=      5-min Rain = 0
KPT1 162050Z 18011G16KT 18/02 A2999 RMK A01 T01830023  RH  035%=      5-min Rain = 0
KPT1 162055Z 18010G15KT 18/02 A2998 RMK A01 T01820023  RH  035%=      5-min Rain = 0
KPT1 162100Z 18010G15KT 18/02 A2998 RMK A01 T01840022  RH  034%=      5-min Rain = 0
KPT1 162105Z 18011KT 18/02 A2999 RMK A01 T01830019  RH  034%=      5-min Rain = 0
KPT1 162110Z 18011KT 19/02 A2999 RMK A01 T01850019  RH  034%=      5-min Rain = 0
KPT1 162115Z 18011G16KT 19/02 A2999 RMK A01 T01930019  RH  032%=      5-min Rain = 0
KPT1 162120Z 18012G18KT 19/02 A2999 RMK A01 T01940017  RH  031%=      5-min Rain = 0
KPT1 162125Z 19009KT 19/02 A2998 RMK A01 T01930019  RH  032%=      5-min Rain = 0
KPT1 162130Z 18011KT 19/02 A2998 RMK A01 T01940019  RH  032%=      5-min Rain = 0
KPT1 162135Z 19010G16KT 20/02 A2998 RMK A01 T01950018  RH  031%=      5-min Rain = 0
KPT1 162140Z 18011KT 19/02 A2998 RMK A01 T01930017  RH  031%=      5-min Rain = 0
KPT1 162145Z 18012KT 19/02 A2998 RMK A01 T01870016  RH  032%=      5-min Rain = 0
KPT1 162150Z 20011KT 19/01 A2998 RMK A01 T01850014  RH  032%=      5-min Rain = 0
KPT1 162155Z 20009G14KT 18/02 A2998 RMK A01 T01820017  RH  034%=      5-min Rain = 0
KPT1 162200Z 21007KT 18/02 A2998 RMK A01 T01840018  RH  033%=      5-min Rain = 0
KPT1 162205Z 19006KT 18/02 A2998 RMK A01 T01840018  RH  033%=      5-min Rain = 0
KPT1 162210Z 19005KT 18/02 A2998 RMK A01 T01840020  RH  034%=      5-min Rain = 0
KPT1 162215Z 20005KT 18/02 A2997 RMK A01 T01820020  RH  034%=      5-min Rain = 0
KPT1 162220Z 20006KT 18/02 A2997 RMK A01 T01800020  RH  035%=      5-min Rain = 0
KPT1 162225Z 20005KT 18/02 A2997 RMK A01 T01780020  RH  035%=      5-min Rain = 0
KPT1 162230Z 19004KT 18/02 A2997 RMK A01 T01770020  RH  035%=      5-min Rain = 0
KPT1 162235Z 19005KT 18/02 A2997 RMK A01 T01770020  RH  035%=      5-min Rain = 0
KPT1 162240Z 20004KT 18/02 A2997 RMK A01 T01770021  RH  036%=      5-min Rain = 0
KPT1 162245Z 20003KT 18/02 A2997 RMK A01 T01790022  RH  036%=      5-min Rain = 0
KPT1 162250Z 18003KT 18/02 A2997 RMK A01 T01820022  RH  035%=      5-min Rain = 0
KPT1 162255Z 17003KT 18/02 A2997 RMK A01 T01840023  RH  035%=      5-min Rain = 0
KPT1 162300Z 17004KT 19/02 A2997 RMK A01 T01870022  RH  034%=      5-min Rain = 0
KPT1 162305Z 17006KT 19/02 A2997 RMK A01 T01850021  RH  034%=      5-min Rain = 0
KPT1 162310Z 18006KT 18/02 A2997 RMK A01 T01790020  RH  035%=      5-min Rain = 0
KPT1 162315Z 18008KT 18/02 A2997 RMK A01 T01750019  RH  036%=      5-min Rain = 0
KPT1 162320Z 19007KT 17/02 A2997 RMK A01 T01730019  RH  036%=      5-min Rain = 0
KPT1 162325Z 19007KT 17/02 A2997 RMK A01 T01710020  RH  037%=      5-min Rain = 0
KPT1 162330Z 19006KT 17/02 A2997 RMK A01 T01690020  RH  037%=      5-min Rain = 0
KPT1 162335Z 19005KT 17/02 A2997 RMK A01 T01660020  RH  038%=      5-min Rain = 0
KPT1 162340Z 19005KT 16/02 A2997 RMK A01 T01630020  RH  039%=      5-min Rain = 0
KPT1 162345Z 19005KT 16/02 A2998 RMK A01 T01590021  RH  040%=      5-min Rain = 0
KPT1 162350Z 19004KT 16/02 A2997 RMK A01 T01580021  RH  040%=      5-min Rain = 0
KPT1 162355Z 19004KT 16/02 A2997 RMK A01 T01550021  RH  041%=      5-min Rain = 0
KPT1 170000Z 18005KT 15/02 A2997 RMK A01 T01520021  RH  042%=      5-min Rain = 0
KPT1 170005Z 17005KT 15/02 A2997 RMK A01 T01470021  RH  043%=      5-min Rain = 0
KPT1 170010Z 17005KT 14/02 A2997 RMK A01 T01420023  RH  045%=      5-min Rain = 0
KPT1 170015Z 17006KT 14/02 A2997 RMK A01 T01390024  RH  046%=      5-min Rain = 0
KPT1 170020Z 17005KT 14/03 A2997 RMK A01 T01390025  RH  047%=      5-min Rain = 0
KPT1 170025Z 17005KT 14/03 A2998 RMK A01 T01390025  RH  047%=      5-min Rain = 0
KPT1 170030Z 18005KT 14/02 A2997 RMK A01 T01370024  RH  047%=      5-min Rain = 0
KPT1 170035Z 19005KT 14/02 A2997 RMK A01 T01370024  RH  047%=      5-min Rain = 0
KPT1 170040Z 19005KT 14/02 A2997 RMK A01 T01390023  RH  046%=      5-min Rain = 0
KPT1 170045Z 18005KT 14/02 A2997 RMK A01 T01380023  RH  046%=      5-min Rain = 0
KPT1 170050Z 18006KT 13/02 A2997 RMK A01 T01340023  RH  048%=      5-min Rain = 0
KPT1 170055Z 18006KT 13/02 A2997 RMK A01 T01330023  RH  048%=      5-min Rain = 0
KPT1 170100Z 19006KT 13/02 A2997 RMK A01 T01340023  RH  048%=      5-min Rain = 0
KPT1 170105Z 19006KT 14/02 A2997 RMK A01 T01360022  RH  047%=      5-min Rain = 0
KPT1 170110Z 19006KT 14/02 A2997 RMK A01 T01360022  RH  046%=      5-min Rain = 0
KPT1 170115Z 19006KT 14/02 A2997 RMK A01 T01360022  RH  047%=      5-min Rain = 0
KPT1 170120Z 19007KT 14/02 A2997 RMK A01 T01360022  RH  047%=      5-min Rain = 0
KPT1 170125Z 19007KT 14/02 A2996 RMK A01 T01360022  RH  047%=      5-min Rain = 0
KPT1 170130Z 18008KT 14/02 A2996 RMK A01 T01390023  RH  046%=      5-min Rain = 0
KPT1 170135Z 18008KT 14/02 A2996 RMK A01 T01410024  RH  046%=      5-min Rain = 0
KPT1 170140Z 18009KT 14/02 A2996 RMK A01 T01420024  RH  046%=      5-min Rain = 0
KPT1 170145Z 19009KT 14/02 A2997 RMK A01 T01430024  RH  046%=      5-min Rain = 0
KPT1 170150Z 18009KT 14/03 A2997 RMK A01 T01420025  RH  046%=      5-min Rain = 0
KPT1 170155Z 18008KT 14/03 A2997 RMK A01 T01400026  RH  047%=      5-min Rain = 0
KPT1 170200Z 18008G13KT 14/03 A2997 RMK A01 T01410027  RH  047%=      5-min Rain = 0
KPT1 170205Z 19009KT 14/03 A2997 RMK A01 T01410029  RH  048%=      5-min Rain = 0
KPT1 170210Z 19007KT 14/03 A2997 RMK A01 T01390030  RH  048%=      5-min Rain = 0
KPT1 170215Z 19009G15KT 14/03 A2997 RMK A01 T01390031  RH  049%=      5-min Rain = 0
KPT1 170220Z 20009KT 14/03 A2997 RMK A01 T01400032  RH  049%=      5-min Rain = 0
KPT1 170225Z 20008KT 14/03 A2997 RMK A01 T01370032  RH  050%=      5-min Rain = 0
KPT1 170230Z 20009KT 14/03 A2997 RMK A01 T01350032  RH  051%=      5-min Rain = 0
KPT1 170235Z 20008KT 13/03 A2997 RMK A01 T01340033  RH  051%=      5-min Rain = 0
KPT1 170240Z 20008KT 13/03 A2997 RMK A01 T01310033  RH  052%=      5-min Rain = 0
KPT1 170245Z 20007KT 13/03 A2997 RMK A01 T01280033  RH  053%=      5-min Rain = 0
KPT1 170250Z 20007KT 13/03 A2997 RMK A01 T01270034  RH  054%=      5-min Rain = 0
KPT1 170255Z 20008KT 13/04 A2997 RMK A01 T01250035  RH  055%=      5-min Rain = 0
KPT1 170300Z 19009KT 13/04 A2997 RMK A01 T01260035  RH  055%=      5-min Rain = 0
KPT1 170305Z 20010G15KT 13/04 A2997 RMK A01 T01270036  RH  055%=      5-min Rain = 0
KPT1 170310Z 20011G16KT 13/04 A2997 RMK A01 T01310037  RH  054%=      5-min Rain = 0
KPT1 170315Z 20010KT 13/04 A2997 RMK A01 T01300037  RH  054%=      5-min Rain = 0
KPT1 170320Z 20010G17KT 13/04 A2997 RMK A01 T01290038  RH  055%=      5-min Rain = 0
KPT1 170325Z 20009KT 13/04 A2997 RMK A01 T01280038  RH  055%=      5-min Rain = 0
KPT1 170330Z 20009G14KT 13/04 A2997 RMK A01 T01270038  RH  056%=      5-min Rain = 0
KPT1 170335Z 20009KT 13/04 A2997 RMK A01 T01260038  RH  056%=      5-min Rain = 0
KPT1 170340Z 20009KT 12/04 A2997 RMK A01 T01240038  RH  057%=      5-min Rain = 0
KPT1 170345Z 20008KT 12/04 A2997 RMK A01 T01230038  RH  057%=      5-min Rain = 0
KPT1 170350Z 20007KT 12/04 A2997 RMK A01 T01200039  RH  058%=      5-min Rain = 0
KPT1 170355Z 19008KT 12/04 A2997 RMK A01 T01190039  RH  059%=      5-min Rain = 0
KPT1 170400Z 19008KT 12/04 A2997 RMK A01 T01180039  RH  060%=      5-min Rain = 0
KPT1 170405Z 19008KT 12/04 A2997 RMK A01 T01170040  RH  060%=      5-min Rain = 0
KPT1 170410Z 19008KT 12/04 A2997 RMK A01 T01160040  RH  061%=      5-min Rain = 0
KPT1 170415Z 19008KT 12/04 A2997 RMK A01 T01150040  RH  061%=      5-min Rain = 0
KPT1 170420Z 19008KT 12/04 A2997 RMK A01 T01150040  RH  061%=      5-min Rain = 0
KPT1 170425Z 19008KT 11/04 A2996 RMK A01 T01140040  RH  062%=      5-min Rain = 0
KPT1 170430Z 19009KT 12/04 A2996 RMK A01 T01150040  RH  061%=      5-min Rain = 0
KPT1 170435Z 19008KT 11/04 A2996 RMK A01 T01130040  RH  062%=      5-min Rain = 0
KPT1 170440Z 20008KT 11/04 A2996 RMK A01 T01130040  RH  062%=      5-min Rain = 0
KPT1 170445Z 20008G13KT 11/04 A2996 RMK A01 T01120040  RH  062%=      5-min Rain = 0
KPT1 170450Z 20008KT 11/04 A2996 RMK A01 T01120040  RH  062%=      5-min Rain = 0
KPT1 170455Z 20008KT 11/04 A2996 RMK A01 T01110039  RH  062%=      5-min Rain = 0
KPT1 170500Z 20006KT 11/04 A2996 RMK A01 T01100039  RH  063%=      5-min Rain = 0
KPT1 170505Z 20009KT 11/04 A2996 RMK A01 T01090040  RH  063%=      5-min Rain = 0
KPT1 170510Z 20008KT 11/04 A2996 RMK A01 T01100040  RH  063%=      5-min Rain = 0
KPT1 170515Z 20009KT 11/04 A2996 RMK A01 T01100039  RH  063%=      5-min Rain = 0
KPT1 170520Z 20008KT 11/04 A2996 RMK A01 T01100039  RH  063%=      5-min Rain = 0
KPT1 170525Z 20007KT 11/04 A2996 RMK A01 T01090039  RH  063%=      5-min Rain = 0
KPT1 170530Z 20007KT 11/04 A2996 RMK A01 T01070039  RH  064%=      5-min Rain = 0
KPT1 170535Z 20007KT 11/04 A2996 RMK A01 T01080039  RH  064%=      5-min Rain = 0
KPT1 170540Z 21006KT 11/04 A2996 RMK A01 T01060038  RH  064%=      5-min Rain = 0
KPT1 170545Z 21005KT 10/04 A2996 RMK A01 T01030038  RH  065%=      5-min Rain = 0
KPT1 170550Z 19005KT 10/04 A2996 RMK A01 T01000038  RH  066%=      5-min Rain = 0
KPT1 170555Z 20006KT 10/04 A2996 RMK A01 T00990038  RH  067%=      5-min Rain = 0

Page generated in 0.0202 seconds.